createdAt,value
2022-12-18T00:01:25.178Z,-0.22
2022-12-18T00:03:53.645Z,-0.19
2022-12-18T00:06:22.867Z,-0.18
2022-12-18T00:08:51.979Z,-0.05
2022-12-18T00:11:22.129Z,0.02
2022-12-18T00:13:51.486Z,-0.24
2022-12-18T00:16:23.330Z,0.01
2022-12-18T00:18:52.726Z,-0.56
2022-12-18T00:21:20.958Z,-1.00
2022-12-18T00:23:50.282Z,-0.18
2022-12-18T00:26:24.012Z,-0.05
2022-12-18T00:28:54.205Z,-0.27
2022-12-18T00:31:24.473Z,-0.45
2022-12-18T00:33:54.097Z,0.04
2022-12-18T00:36:25.071Z,-0.19
2022-12-18T00:38:53.657Z,-0.08
2022-12-18T00:41:35.557Z,-0.10
2022-12-18T00:44:05.934Z,-0.40
2022-12-18T00:46:34.011Z,-0.11
2022-12-18T00:49:01.757Z,-0.18
2022-12-18T00:51:29.546Z,-0.15
2022-12-18T00:53:57.609Z,-0.53
2022-12-18T00:56:26.192Z,0.00
2022-12-18T00:58:54.334Z,-0.11
2022-12-18T01:01:23.502Z,-0.32
2022-12-18T01:03:51.680Z,-0.13
2022-12-18T01:06:19.499Z,-0.03
2022-12-18T01:08:47.314Z,-0.02
2022-12-18T01:11:17.886Z,-0.67
2022-12-18T01:13:45.659Z,-0.21
2022-12-18T01:16:14.186Z,-0.62
2022-12-18T01:18:43.569Z,-0.81
2022-12-18T01:21:13.582Z,-0.12
2022-12-18T01:23:41.839Z,-0.09
2022-12-18T01:26:11.064Z,-0.29
2022-12-18T01:28:38.976Z,-0.29
2022-12-18T01:31:16.847Z,-0.60
2022-12-18T01:33:46.925Z,-0.57
2022-12-18T01:36:19.719Z,-0.25
2022-12-18T01:38:48.539Z,-0.29
2022-12-18T01:41:18.394Z,-0.30
2022-12-18T01:43:49.150Z,-0.60
2022-12-18T01:46:17.864Z,-0.41
2022-12-18T01:48:48.883Z,-0.22
2022-12-18T01:51:17.245Z,-0.25
2022-12-18T01:53:46.737Z,-0.63
2022-12-18T01:56:16.576Z,-0.39
2022-12-18T01:58:53.887Z,-0.94
2022-12-18T02:01:23.618Z,-0.40
2022-12-18T02:03:53.435Z,-1.30
2022-12-18T02:06:27.256Z,-0.89
2022-12-18T02:09:07.458Z,-0.79
2022-12-18T02:11:48.791Z,-0.85
2022-12-18T02:14:25.623Z,-0.56
2022-12-18T02:17:01.821Z,-0.77
2022-12-18T02:19:44.504Z,-0.36
2022-12-18T02:22:26.300Z,-0.26
2022-12-18T02:25:08.439Z,-0.25
2022-12-18T02:27:41.421Z,-0.20
2022-12-18T02:30:10.302Z,-0.37
2022-12-18T02:32:48.153Z,-0.28
2022-12-18T02:35:19.018Z,-0.63
2022-12-18T02:37:48.857Z,-0.72
2022-12-18T02:40:19.226Z,-0.60
2022-12-18T02:42:48.317Z,-0.70
2022-12-18T02:45:16.111Z,-0.39
2022-12-18T02:47:47.952Z,-0.64
2022-12-18T02:50:24.709Z,-0.30
2022-12-18T02:53:02.917Z,-0.32
2022-12-18T02:55:43.185Z,-0.44
2022-12-18T02:58:19.775Z,-2.17
2022-12-18T03:00:56.800Z,-2.69
2022-12-18T03:03:30.298Z,-2.37
2022-12-18T03:06:04.017Z,-2.24
2022-12-18T03:08:36.423Z,-2.16
2022-12-18T03:11:06.848Z,-1.80
2022-12-18T03:13:39.310Z,-2.05
2022-12-18T03:16:09.666Z,-1.89
2022-12-18T03:18:41.013Z,-1.60
2022-12-18T03:21:11.793Z,-2.11
2022-12-18T03:23:46.861Z,-3.35
2022-12-18T03:26:17.781Z,-3.60
2022-12-18T03:28:52.950Z,-3.34
2022-12-18T03:31:24.281Z,-3.06
2022-12-18T03:33:55.057Z,-2.90
2022-12-18T03:36:24.791Z,-2.92
2022-12-18T03:38:53.450Z,-3.03
2022-12-18T03:41:30.699Z,-2.57
2022-12-18T03:44:10.582Z,-2.75
2022-12-18T03:46:47.370Z,-2.30
2022-12-18T03:49:21.835Z,-2.25
2022-12-18T03:51:56.600Z,-2.36
2022-12-18T03:54:26.415Z,-2.26
2022-12-18T03:57:00.202Z,-2.34
2022-12-18T03:59:30.945Z,-2.14
2022-12-18T04:02:01.610Z,-2.98
2022-12-18T04:04:31.392Z,-2.72
2022-12-18T04:07:00.501Z,-2.35
2022-12-18T04:09:29.445Z,-2.53
2022-12-18T04:11:57.218Z,-2.61
2022-12-18T04:14:25.043Z,-2.73
2022-12-18T04:16:54.151Z,-3.83
2022-12-18T04:19:21.986Z,-3.83
2022-12-18T04:21:49.762Z,-3.96
2022-12-18T04:24:17.632Z,-4.50
2022-12-18T04:26:45.361Z,-4.23
2022-12-18T04:29:13.035Z,-3.58
2022-12-18T04:31:40.903Z,-3.51
2022-12-18T04:34:10.079Z,-3.66
2022-12-18T04:36:37.924Z,-3.60
2022-12-18T04:39:05.636Z,-3.24
2022-12-18T04:41:33.362Z,-3.32
2022-12-18T04:44:01.059Z,-3.55
2022-12-18T04:46:28.943Z,-3.55
2022-12-18T04:48:56.688Z,-3.41
2022-12-18T04:51:26.804Z,-4.50
2022-12-18T04:53:54.714Z,-4.16
2022-12-18T04:56:22.778Z,-3.84
2022-12-18T04:58:50.871Z,-3.53
2022-12-18T05:01:20.265Z,-3.44
2022-12-18T05:03:48.082Z,-3.68
2022-12-18T05:06:15.975Z,-3.37
2022-12-18T05:08:45.183Z,-3.37
2022-12-18T05:11:16.714Z,-3.49
2022-12-18T05:13:44.731Z,-3.51
2022-12-18T05:16:13.129Z,-3.67
2022-12-18T05:18:41.246Z,-4.02
2022-12-18T05:21:08.971Z,-3.87
2022-12-18T05:23:38.224Z,-3.55
2022-12-18T05:26:09.311Z,-3.42
2022-12-18T05:28:38.403Z,-3.38
2022-12-18T05:31:07.168Z,-3.67
2022-12-18T05:33:36.754Z,-4.48
2022-12-18T05:36:07.029Z,-4.62
2022-12-18T05:38:36.693Z,-4.49
2022-12-18T05:41:04.823Z,-4.67
2022-12-18T05:43:35.949Z,-4.25
2022-12-18T05:46:06.383Z,-3.96
2022-12-18T05:48:34.195Z,-4.21
2022-12-18T05:51:07.637Z,-3.96
2022-12-18T05:53:35.534Z,-3.90
2022-12-18T05:56:04.751Z,-3.96
2022-12-18T05:58:34.763Z,-4.15
2022-12-18T06:01:09.271Z,-4.62
2022-12-18T06:03:37.107Z,-5.08
2022-12-18T06:06:05.303Z,-5.86
2022-12-18T06:08:33.050Z,-5.37
2022-12-18T06:11:00.819Z,-4.82
2022-12-18T06:13:28.505Z,-4.76
2022-12-18T06:15:57.610Z,-5.41
2022-12-18T06:18:25.342Z,-4.94
2022-12-18T06:20:57.739Z,-4.86
2022-12-18T06:23:25.721Z,-5.08
2022-12-18T06:25:53.995Z,-5.05
2022-12-18T06:28:21.744Z,-4.80
2022-12-18T06:30:50.277Z,-4.58
2022-12-18T06:33:19.327Z,-4.99
2022-12-18T06:35:46.981Z,-4.72
2022-12-18T06:38:15.625Z,-4.89
2022-12-18T06:40:43.304Z,-4.83
2022-12-18T06:43:11.055Z,-4.55
2022-12-18T06:45:38.762Z,-4.49
2022-12-18T06:48:06.707Z,-4.68
2022-12-18T06:50:35.799Z,-4.48
2022-12-18T06:53:03.569Z,-5.30
2022-12-18T06:55:31.889Z,-5.14
2022-12-18T06:57:59.570Z,-4.96
2022-12-18T07:00:27.555Z,-4.72
2022-12-18T07:02:55.374Z,-4.60
2022-12-18T07:05:23.107Z,-4.69
2022-12-18T07:07:52.187Z,-5.08
2022-12-18T07:10:20.112Z,-4.97
2022-12-18T07:12:47.809Z,-4.73
2022-12-18T07:15:15.718Z,-4.63
2022-12-18T07:17:43.470Z,-4.88
2022-12-18T07:20:12.247Z,-4.44
2022-12-18T07:22:39.915Z,-4.43
2022-12-18T07:25:09.941Z,-4.51
2022-12-18T07:27:37.618Z,-4.09
2022-12-18T07:30:06.397Z,-3.94
2022-12-18T07:32:34.187Z,-3.78
2022-12-18T07:35:01.886Z,-3.65
2022-12-18T07:37:29.663Z,-3.49
2022-12-18T07:39:57.375Z,-3.50
2022-12-18T07:42:32.325Z,-3.33
2022-12-18T07:45:00.164Z,-3.28
2022-12-18T07:47:27.947Z,-3.17
2022-12-18T07:49:57.160Z,-2.87
2022-12-18T07:52:26.355Z,-3.28
2022-12-18T07:54:54.293Z,-3.08
2022-12-18T07:57:48.776Z,-3.07
2022-12-18T08:00:13.316Z,-2.90
2022-12-18T08:02:41.213Z,-2.77
2022-12-18T08:05:10.730Z,-2.70
2022-12-18T08:07:38.612Z,-2.49
2022-12-18T08:10:07.617Z,-1.74
2022-12-18T08:12:35.469Z,-1.00
2022-12-18T08:15:03.390Z,0.68
2022-12-18T08:17:33.089Z,1.31
2022-12-18T08:20:00.869Z,2.07
2022-12-18T08:22:28.744Z,1.83
2022-12-18T08:24:56.911Z,2.09
2022-12-18T08:27:31.980Z,1.53
2022-12-18T08:30:00.637Z,2.40
2022-12-18T08:32:32.604Z,2.05
2022-12-18T08:35:01.842Z,0.67
2022-12-18T08:37:29.705Z,-0.06
2022-12-18T08:39:57.396Z,-0.61
2022-12-18T08:42:42.363Z,-0.73
2022-12-18T08:45:11.004Z,-1.78
2022-12-18T08:47:39.029Z,-1.34
2022-12-18T08:50:08.785Z,-1.42
2022-12-18T08:52:36.755Z,-0.94
2022-12-18T08:55:07.722Z,-1.08
2022-12-18T08:57:35.458Z,-0.85
2022-12-18T09:00:03.173Z,-0.90
2022-12-18T09:02:31.046Z,-0.84
2022-12-18T09:04:58.815Z,-1.04
2022-12-18T09:07:28.504Z,-0.76
2022-12-18T09:09:56.301Z,-1.09
2022-12-18T09:12:24.098Z,-1.06
2022-12-18T09:14:51.872Z,-0.90
2022-12-18T09:17:19.798Z,-0.44
2022-12-18T09:19:47.737Z,-0.97
2022-12-18T09:22:15.562Z,-0.91
2022-12-18T09:24:44.680Z,-0.28
2022-12-18T09:27:12.398Z,-0.21
2022-12-18T09:29:40.389Z,0.10
2022-12-18T09:32:08.075Z,0.03
2022-12-18T09:34:35.932Z,0.41
2022-12-18T09:37:03.615Z,0.31
2022-12-18T09:39:31.333Z,0.04
2022-12-18T09:42:01.383Z,-0.27
2022-12-18T09:44:31.911Z,0.28
2022-12-18T09:47:08.048Z,0.37
2022-12-18T09:49:39.377Z,0.31
2022-12-18T09:52:13.623Z,0.39
2022-12-18T09:54:54.140Z,-0.15
2022-12-18T09:57:26.468Z,0.68
2022-12-18T09:59:57.605Z,0.14
2022-12-18T10:02:27.945Z,0.62
2022-12-18T10:05:13.505Z,0.49
2022-12-18T10:07:55.348Z,0.33
2022-12-18T10:10:35.802Z,0.57
2022-12-18T10:13:16.534Z,1.17
2022-12-18T10:15:56.922Z,0.92
2022-12-18T10:18:39.979Z,0.62
2022-12-18T10:21:14.410Z,0.60
2022-12-18T10:23:49.947Z,1.11
2022-12-18T10:26:17.658Z,1.20
2022-12-18T10:28:47.167Z,1.01
2022-12-18T10:31:18.917Z,1.08
2022-12-18T10:33:46.998Z,1.39
2022-12-18T10:36:14.715Z,1.48
2022-12-18T10:38:43.375Z,1.58
2022-12-18T10:41:27.690Z,1.40
2022-12-18T10:44:17.840Z,1.36
2022-12-18T10:46:47.077Z,1.19
2022-12-18T10:49:24.485Z,1.58
2022-12-18T10:51:53.566Z,1.26
2022-12-18T10:54:24.580Z,1.18
2022-12-18T10:56:52.278Z,1.68
2022-12-18T10:59:21.377Z,1.51
2022-12-18T11:01:51.876Z,1.05
2022-12-18T11:04:22.825Z,0.91
2022-12-18T11:06:59.970Z,1.95
2022-12-18T11:09:29.144Z,1.98
2022-12-18T11:12:00.057Z,1.41
2022-12-18T11:14:31.190Z,1.21
2022-12-18T11:19:55.245Z,1.38
2022-12-18T11:22:27.413Z,1.02
2022-12-18T11:27:51.371Z,1.48
2022-12-18T11:30:26.301Z,0.65
2022-12-18T11:32:57.851Z,1.09
2022-12-18T11:35:40.034Z,1.53
2022-12-18T11:38:19.415Z,1.60
2022-12-18T11:40:53.779Z,1.98
2022-12-18T11:43:28.081Z,1.79
2022-12-18T11:46:01.683Z,1.23
2022-12-18T11:48:32.605Z,1.84
2022-12-18T11:51:03.563Z,1.90
2022-12-18T11:53:32.506Z,1.87
2022-12-18T11:56:25.062Z,2.48
2022-12-18T11:59:00.182Z,1.31
2022-12-18T12:01:44.626Z,1.49
2022-12-18T12:04:34.025Z,2.02
2022-12-18T12:07:13.802Z,1.81
2022-12-18T12:09:52.075Z,1.80
2022-12-18T12:12:48.650Z,1.60
2022-12-18T12:15:28.147Z,1.30
2022-12-18T12:18:10.934Z,1.43
2022-12-18T12:20:49.775Z,1.74
2022-12-18T12:23:28.215Z,1.06
2022-12-18T12:26:04.930Z,1.32
2022-12-18T12:28:51.482Z,1.04
2022-12-18T12:31:32.524Z,1.31
2022-12-18T12:34:07.533Z,1.43
2022-12-18T12:36:53.640Z,1.47
2022-12-18T12:39:27.113Z,1.33
2022-12-18T12:42:15.792Z,1.35
2022-12-18T12:44:52.642Z,1.61
2022-12-18T12:47:30.178Z,1.64
2022-12-18T12:50:01.335Z,2.28
2022-12-18T12:52:36.848Z,1.72
2022-12-18T12:55:11.515Z,1.48
2022-12-18T12:57:47.777Z,1.93
2022-12-18T13:00:19.411Z,1.62
2022-12-18T13:02:54.809Z,1.77
2022-12-18T13:05:32.465Z,2.08
2022-12-18T13:08:07.270Z,2.13
2022-12-18T13:10:38.253Z,2.21
2022-12-18T13:13:08.988Z,2.07
2022-12-18T13:15:41.040Z,2.61
2022-12-18T13:18:16.811Z,1.68
2022-12-18T13:20:53.625Z,1.64
2022-12-18T13:23:35.129Z,1.96
2022-12-18T13:26:31.924Z,1.23
2022-12-18T13:29:00.509Z,0.83
2022-12-18T13:32:02.286Z,1.30
2022-12-18T13:34:33.006Z,1.24
2022-12-18T13:37:34.735Z,0.88
2022-12-18T13:40:04.807Z,1.12
2022-12-18T13:43:00.305Z,0.80
2022-12-18T13:46:00.517Z,0.73
2022-12-18T13:48:29.980Z,0.95
2022-12-18T13:51:01.594Z,0.58
2022-12-18T13:53:34.958Z,0.69
2022-12-18T13:56:04.877Z,0.64
2022-12-18T13:58:33.156Z,0.40
2022-12-18T14:01:03.090Z,0.53
2022-12-18T14:03:32.404Z,0.56
2022-12-18T14:06:07.926Z,0.26
2022-12-18T14:08:40.674Z,0.56
2022-12-18T14:11:23.232Z,-0.15
2022-12-18T14:13:51.672Z,-0.01
2022-12-18T14:16:19.830Z,-0.47
2022-12-18T14:18:52.849Z,-0.35
2022-12-18T14:21:25.217Z,-0.34
2022-12-18T14:24:06.504Z,-0.07
2022-12-18T14:26:35.796Z,-0.02
2022-12-18T14:29:21.640Z,-0.35
2022-12-18T14:32:08.387Z,-0.09
2022-12-18T14:34:38.309Z,-0.15
2022-12-18T14:37:06.544Z,-0.26
2022-12-18T14:39:34.349Z,-0.41
2022-12-18T14:42:03.512Z,-0.39
2022-12-18T14:44:44.160Z,-1.00
2022-12-18T14:47:18.990Z,-1.13
2022-12-18T14:49:46.880Z,-0.81
2022-12-18T14:52:28.301Z,-0.79
2022-12-18T14:54:56.177Z,-1.01
2022-12-18T14:57:27.453Z,-0.65
2022-12-18T14:59:55.288Z,-0.83
2022-12-18T15:02:25.806Z,-1.05
2022-12-18T15:05:04.378Z,-1.30
2022-12-18T15:07:42.929Z,-1.29
2022-12-18T15:10:13.992Z,-1.13
2022-12-18T15:12:44.706Z,-1.51
2022-12-18T15:15:48.630Z,-1.19
2022-12-18T15:18:18.947Z,-1.25
2022-12-18T15:20:49.286Z,-1.32
2022-12-18T15:23:20.629Z,-1.22
2022-12-18T15:25:50.450Z,-1.18
2022-12-18T15:28:25.100Z,-1.27
2022-12-18T15:31:05.706Z,-1.86
2022-12-18T15:33:35.503Z,-1.32
2022-12-18T15:36:05.626Z,-1.28
2022-12-18T15:38:34.183Z,-1.18
2022-12-18T15:41:02.955Z,-1.69
2022-12-18T15:43:37.919Z,-1.78
2022-12-18T15:46:07.560Z,-1.41
2022-12-18T15:48:37.650Z,-1.46
2022-12-18T15:51:07.426Z,-1.46
2022-12-18T15:53:35.641Z,-1.55
2022-12-18T15:56:21.048Z,-1.74
2022-12-18T15:58:50.313Z,-1.69
2022-12-18T16:01:22.591Z,-1.39
2022-12-18T16:03:50.425Z,-1.56
2022-12-18T16:06:18.352Z,-1.57
2022-12-18T16:08:46.043Z,-1.48
2022-12-18T16:11:39.084Z,-1.56
2022-12-18T16:14:17.424Z,-1.48
2022-12-18T16:16:46.474Z,-1.24
2022-12-18T16:19:14.259Z,-1.41
2022-12-18T16:21:42.078Z,-1.58
2022-12-18T16:24:16.781Z,-1.52
2022-12-18T16:26:45.079Z,-1.41
2022-12-18T16:29:14.200Z,-1.60
2022-12-18T16:31:42.345Z,-1.51
2022-12-18T16:34:15.313Z,-1.91
2022-12-18T16:36:43.105Z,-1.77
2022-12-18T16:39:10.878Z,-1.75
2022-12-18T16:41:38.706Z,-1.53
2022-12-18T16:44:06.472Z,-1.61
2022-12-18T16:46:35.752Z,-1.55
2022-12-18T16:49:03.520Z,-1.76
2022-12-18T16:51:31.444Z,-1.70
2022-12-18T16:53:59.150Z,-1.77
2022-12-18T16:56:27.355Z,-1.34
2022-12-18T16:58:56.724Z,-1.61
2022-12-18T17:01:25.359Z,-1.73
2022-12-18T17:03:55.894Z,-1.53
2022-12-18T17:06:24.283Z,-1.80
2022-12-18T17:08:58.185Z,-1.65
2022-12-18T17:11:26.763Z,-1.68
2022-12-18T17:13:55.519Z,-1.46
2022-12-18T17:16:23.853Z,-1.71
2022-12-18T17:18:51.928Z,-1.51
2022-12-18T17:21:20.999Z,-1.45
2022-12-18T17:23:48.654Z,-1.35
2022-12-18T17:26:16.400Z,-1.46
2022-12-18T17:28:44.448Z,-1.52
2022-12-18T17:31:13.715Z,-1.49
2022-12-18T17:33:41.989Z,-1.41
2022-12-18T17:36:10.580Z,-1.55
2022-12-18T17:38:40.177Z,-1.59
2022-12-18T17:41:10.189Z,-1.59
2022-12-18T17:43:39.583Z,-1.36
2022-12-18T17:46:08.110Z,-1.64
2022-12-18T17:48:37.332Z,-1.40
2022-12-18T17:51:06.734Z,-1.30
2022-12-18T17:53:34.597Z,-1.67
2022-12-18T17:56:05.678Z,-1.32
2022-12-18T17:58:33.762Z,-1.20
2022-12-18T18:01:01.277Z,-1.52
2022-12-18T18:03:29.272Z,-1.43
2022-12-18T18:05:57.340Z,-1.57
2022-12-18T18:08:25.015Z,-1.46
2022-12-18T18:10:52.558Z,-1.49
2022-12-18T18:13:46.461Z,-1.33
2022-12-18T18:16:14.582Z,-1.27
2022-12-18T18:18:42.125Z,-1.41
2022-12-18T18:21:09.891Z,-1.55
2022-12-18T18:23:38.563Z,-1.34
2022-12-18T18:26:08.248Z,-1.11
2022-12-18T18:28:37.634Z,-1.19
2022-12-18T18:31:06.016Z,-1.48
2022-12-18T18:33:33.893Z,-1.35
2022-12-18T18:36:01.403Z,-1.09
2022-12-18T18:38:29.383Z,-1.22
2022-12-18T18:41:00.366Z,-1.25
2022-12-18T18:43:27.969Z,-1.33
2022-12-18T18:45:58.004Z,-0.93
2022-12-18T18:48:25.721Z,-1.17
2022-12-18T18:50:58.336Z,-1.21
2022-12-18T18:53:25.852Z,-1.26
2022-12-18T18:56:17.440Z,-1.27
2022-12-18T18:58:41.190Z,-1.39
2022-12-18T19:01:11.672Z,-1.60
2022-12-18T19:03:40.041Z,-1.37
2022-12-18T19:06:08.487Z,-1.08
2022-12-18T19:08:37.965Z,-1.21
2022-12-18T19:11:26.641Z,-1.31
2022-12-18T19:13:53.269Z,-1.10
2022-12-18T19:16:24.408Z,-1.13
2022-12-18T19:18:54.969Z,-1.57
2022-12-18T19:21:27.711Z,-1.12
2022-12-18T19:23:58.053Z,-1.19
2022-12-18T19:26:28.288Z,-1.15
2022-12-18T19:29:01.352Z,-1.38
2022-12-18T19:31:35.208Z,-1.03
2022-12-18T19:34:04.218Z,-1.17
2022-12-18T19:36:32.601Z,-1.46
2022-12-18T19:39:01.641Z,-1.52
2022-12-18T19:41:31.242Z,-1.37
2022-12-18T19:44:01.120Z,-1.31
2022-12-18T19:46:37.129Z,-0.58
2022-12-18T19:49:09.916Z,-1.22
2022-12-18T19:51:37.648Z,-1.41
2022-12-18T19:54:05.548Z,-1.23
2022-12-18T19:56:34.113Z,-1.36
2022-12-18T19:59:02.089Z,-1.25
2022-12-18T20:01:30.547Z,-1.42
2022-12-18T20:04:01.093Z,-1.19
2022-12-18T20:06:30.334Z,-1.04
2022-12-18T20:09:00.267Z,-1.26
2022-12-18T20:11:28.463Z,-1.38
2022-12-18T20:13:55.955Z,-1.08
2022-12-18T20:16:23.491Z,-1.22
2022-12-18T20:18:51.392Z,-1.33
2022-12-18T20:21:21.229Z,-1.14
2022-12-18T20:23:48.843Z,-1.07
2022-12-18T20:26:16.357Z,-1.12
2022-12-18T20:28:43.911Z,-0.96
2022-12-18T20:31:13.834Z,-0.86
2022-12-18T20:33:43.198Z,-0.74
2022-12-18T20:36:15.261Z,-1.33
2022-12-18T20:38:45.261Z,-1.22
2022-12-18T20:41:15.663Z,-0.54
2022-12-18T20:43:43.587Z,-0.44
2022-12-18T20:46:13.265Z,-0.81
2022-12-18T20:48:40.897Z,-1.21
2022-12-18T20:51:09.385Z,-0.87
2022-12-18T20:53:37.382Z,-1.19
2022-12-18T20:56:09.956Z,-1.24
2022-12-18T20:58:37.620Z,-0.66
2022-12-18T21:01:06.350Z,-0.46
2022-12-18T21:03:33.969Z,-0.71
2022-12-18T21:06:01.548Z,-0.82
2022-12-18T21:08:29.054Z,-0.12
2022-12-18T21:10:56.568Z,-1.08
2022-12-18T21:13:25.101Z,-0.48
2022-12-18T21:15:54.655Z,0.45
2022-12-18T21:18:22.137Z,-0.29
2022-12-18T21:20:49.639Z,0.56
2022-12-18T21:23:17.434Z,0.06
2022-12-18T21:25:45.679Z,0.62
2022-12-18T21:28:14.469Z,0.21
2022-12-18T21:30:43.495Z,-0.03
2022-12-18T21:33:11.077Z,-0.54
2022-12-18T21:35:38.607Z,-0.30
2022-12-18T21:38:06.380Z,0.45
2022-12-18T21:40:33.902Z,0.22
2022-12-18T21:43:18.874Z,-0.11
2022-12-18T21:45:47.773Z,-0.44
2022-12-18T21:48:15.332Z,0.30
2022-12-18T21:50:42.943Z,0.76
2022-12-18T21:53:10.584Z,0.88
2022-12-18T21:55:38.158Z,0.19
2022-12-18T21:58:05.895Z,-0.08
2022-12-18T22:00:33.471Z,0.54
2022-12-18T22:03:17.993Z,-0.04
2022-12-18T22:05:46.556Z,-0.29
2022-12-18T22:08:17.396Z,-0.17
2022-12-18T22:10:45.181Z,0.15
2022-12-18T22:13:12.781Z,0.04
2022-12-18T22:15:40.379Z,0.06
2022-12-18T22:18:11.657Z,-0.05
2022-12-18T22:20:39.207Z,0.42
2022-12-18T22:23:06.814Z,0.05
2022-12-18T22:25:34.809Z,0.45
2022-12-18T22:28:21.309Z,0.52
2022-12-18T22:30:48.880Z,0.09
2022-12-18T22:33:21.573Z,0.39
2022-12-18T22:35:49.044Z,0.43
2022-12-18T22:38:16.643Z,0.43
2022-12-18T22:40:44.208Z,0.36
2022-12-18T22:43:11.796Z,0.12
2022-12-18T22:45:39.438Z,0.16
2022-12-18T22:48:07.288Z,0.36
2022-12-18T22:50:36.271Z,0.11
2022-12-18T22:53:03.755Z,0.31
2022-12-18T22:55:31.362Z,-0.07
2022-12-18T22:57:58.900Z,0.03
2022-12-18T23:00:26.478Z,0.23
2022-12-18T23:02:59.838Z,0.39
2022-12-18T23:05:28.450Z,0.27
2022-12-18T23:07:57.508Z,0.81
2022-12-18T23:10:24.983Z,0.16
2022-12-18T23:12:52.556Z,0.69
2022-12-18T23:15:24.212Z,0.50
2022-12-18T23:17:55.982Z,0.15
2022-12-18T23:20:23.511Z,0.51
2022-12-18T23:22:51.152Z,0.96
2022-12-18T23:25:20.093Z,0.34
2022-12-18T23:27:47.600Z,0.38
2022-12-18T23:30:15.605Z,0.67
2022-12-18T23:32:43.102Z,0.85
2022-12-18T23:35:10.832Z,0.85
2022-12-18T23:37:59.324Z,0.58
2022-12-18T23:40:29.373Z,0.65
2022-12-18T23:42:56.985Z,0.59
2022-12-18T23:45:24.485Z,0.71
2022-12-18T23:47:52.011Z,1.04
2022-12-18T23:50:19.504Z,0.85
2022-12-18T23:52:51.345Z,1.19
2022-12-18T23:55:18.925Z,1.11
2022-12-18T23:57:47.830Z,0.94
